Latest Coastal Weather Observations for Friendly Beaches

IDT60701

Issued at 2:11 pm EST Wednesday 4 May 2016 (issued every 10 minutes, with the page automatically refreshed every 10 minutes)

About coastal observations | Map of coastal stations | Coastal observations for TAS | Marine services | Other Formats
Station Details ID: 092114 Name: FRIENDLY BEACHES Lat: -42.00 Lon: 148.28 Height: 55.0 m
Data from the previous 72 hours. | See also: Recent months at Friendly Beaches
Date/Time
EST
Temp

°C
Wind Pressure Rain
since 9am
mm
Weather Cloud Vis
km
Sea
Height
m
Swell
Dir
 
Speed
knots
Gust
knots
hPa Trend Height
m
Period
s
Dir
04/02:00pm 14.7 WNW 11 20 1007.8 - 0.0 - - - - - - -
04/01:30pm 14.4 WNW 9 15 1007.9 - 0.0 - - - - - - -
04/01:00pm 14.2 WNW 11 20 1008.1 - 0.0 - - - - - - -
04/12:30pm 14.5 WNW 9 17 1008.0 - 0.0 - - - - - - -
04/12:00pm 13.8 WNW 10 19 1008.1 - 0.0 - - - - - - -
04/11:30am 13.5 NW 10 16 1008.2 - 0.0 - - - - - - -
04/11:00am 13.0 NW 8 15 1008.3 - 0.0 - - - - - - -
04/10:30am 12.5 NW 11 17 1008.1 - 0.0 - - - - - - -
04/10:00am 11.8 NW 10 19 1007.7 - 0.0 - - - - - - -
04/09:30am 11.1 NW 9 15 1007.6 - 0.0 - - - - - - -
04/09:00am 9.9 NW 7 11 1007.5 - 3.6 - - - - - - -
04/08:30am 9.2 NW 8 13 1006.9 - 3.6 - - - - - - -
04/08:00am 8.4 NW 7 12 1006.3 - 3.6 - - - - - - -
04/07:30am 7.3 NW 5 8 1005.8 - 3.6 - - - - - - -
04/07:00am 7.7 NW 5 10 1005.3 - 3.6 - - - - - - -
04/06:30am 8.0 WNW 6 14 1004.6 - 3.6 - - - - - - -
04/06:00am 8.0 W 6 11 1004.0 - 3.6 - - - - - - -
04/05:30am 8.1 WNW 9 18 1003.0 - 3.6 - - - - - - -
04/05:00am 8.2 WNW 10 17 1002.3 - 3.6 - - - - - - -
04/04:30am 8.3 WNW 10 17 1001.6 - 3.6 - - - - - - -
04/04:00am 8.6 WNW 12 20 1000.8 - 3.6 - - - - - - -
04/03:30am 8.5 WNW 12 20 1000.2 - 3.6 - - - - - - -
04/03:00am 8.3 NW 10 21 999.9 - 3.6 - - - - - - -
04/02:30am 8.4 WNW 9 16 999.6 - 3.6 - - - - - - -
04/02:00am 8.6 WNW 9 16 999.2 - 3.6 - - - - - - -
04/01:30am 8.7 WNW 11 22 998.8 - 3.6 - - - - - - -
04/01:00am 8.9 WNW 11 22 998.5 - 3.6 - - - - - - -
04/12:30am 9.3 WNW 12 22 998.1 - 3.6 - - - - - - -
04/12:00am 9.3 WNW 13 23 997.5 - 3.6 - - - - - - -
 
Date/Time
EST
Temp

°C
Wind Pressure Rain
since 9am
mm
Weather Cloud Vis
km
Sea
Height
m
Swell
Dir
 
Speed
knots
Gust
knots
hPa Trend Height
m
Period
s
Dir
03/11:30pm 9.1 WNW 13 28 997.1 - 3.6 - - - - - - -
03/11:00pm 9.2 WNW 13 25 996.9 - 3.6 - - - - - - -
03/10:30pm 9.3 WNW 13 29 997.0 - 3.6 - - - - - - -
03/10:00pm 9.4 WNW 12 21 996.6 - 3.6 - - - - - - -
03/09:30pm 9.5 WNW 10 22 996.3 - 3.6 - - - - - - -
03/09:00pm 9.7 WNW 12 20 996.0 - 3.6 - - - - - - -
03/08:30pm 10.0 WNW 12 21 995.3 - 3.6 - - - - - - -
03/08:00pm 10.2 WNW 12 24 994.6 - 3.6 - - - - - - -
03/07:30pm 10.3 NW 10 21 993.8 - 3.6 - - - - - - -
03/07:00pm 10.8 WNW 8 15 993.2 - 3.6 - - - - - - -
03/06:30pm 11.2 WNW 8 13 992.5 - 3.6 - - - - - - -
03/06:00pm 11.6 WNW 10 17 991.9 - 3.6 - - - - - - -
03/05:30pm 11.8 WNW 11 21 991.2 - 3.6 - - - - - - -
03/05:00pm 12.0 NW 11 20 990.4 - 3.6 - - - - - - -
03/04:30pm 13.0 WNW 10 20 989.7 - 3.6 - - - - - - -
03/04:00pm 13.8 NW 10 20 988.9 - 3.6 - - - - - - -
03/03:30pm 14.1 WNW 7 14 988.8 - 3.6 - - - - - - -
03/03:00pm 15.0 NW 12 25 987.9 - 3.6 - - - - - - -
03/02:30pm 14.6 WNW 15 28 988.1 - 3.6 - - - - - - -
03/02:06pm 15.3 WNW 15 27 988.0 - 3.6 - - - - - - -
03/02:00pm 15.4 WNW 12 23 988.1 - 3.6 - - - - - - -
03/01:30pm 15.3 WNW 13 22 988.2 - 3.6 - - - - - - -
03/01:12pm 15.5 WNW 15 32 987.7 - 3.6 - - - - - - -
03/01:00pm 15.0 WNW 12 22 988.1 - 3.6 - - - - - - -
03/12:30pm 13.2 WNW 16 27 988.7 - 3.4 - - - - - - -
03/12:15pm 14.3 W 11 25 989.2 - 2.2 - - - - - - -
03/12:00pm 16.7 WSW 9 17 988.3 - 0.0 - - - - - - -
03/11:30am 19.3 NW 7 15 987.9 - 0.0 - - - - - - -
03/11:00am 18.2 NW 7 15 988.0 - 0.0 - - - - - - -
03/10:30am 18.1 WNW 7 15 988.8 - 0.0 - - - - - - -
03/10:00am 17.6 WNW 7 13 989.2 - 0.0 - - - - - - -
03/09:30am 17.4 WNW 9 18 989.2 - 0.0 - - - - - - -
03/09:00am 16.5 WNW 15 29 989.1 - 0.0 - - - - - - -
03/08:30am 15.7 WNW 17 31 989.1 - 0.0 - - - - - - -
03/08:00am 17.7 NW 16 29 988.1 - 0.0 - - - - - - -
03/07:30am 17.2 NW 15 30 987.4 - 0.0 - - - - - - -
03/07:00am 17.1 NW 16 29 987.7 - 0.0 - - - - - - -
03/06:32am 16.9 NW 15 33 988.3 - 0.0 - - - - - - -
03/06:30am 16.9 NW 13 33 988.3 - 0.0 - - - - - - -
03/06:00am 16.7 NW 10 25 989.3 - 0.0 - - - - - - -
03/05:56am 16.8 NW 9 25 989.5 - 0.0 - - - - - - -
03/05:30am 16.6 NNW 9 21 989.8 - 0.0 - - - - - - -
03/05:00am 16.8 NNW 9 30 990.5 - 0.0 - - - - - - -
03/04:30am 17.0 NNW 14 28 990.9 - 0.0 - - - - - - -
03/04:22am 17.0 N 11 28 990.7 - 0.0 - - - - - - -
03/04:00am 16.9 NNW 9 18 991.5 - 0.0 - - - - - - -
03/03:30am 17.1 NNW 13 25 991.6 - 0.0 - - - - - - -
03/03:08am 17.1 NNW 15 26 991.7 - 0.0 - - - - - - -
03/03:00am 16.8 NNW 14 22 991.6 - 0.0 - - - - - - -
03/02:33am 17.0 NNW 15 25 991.8 - 0.0 - - - - - - -
03/02:30am 16.9 NNW 14 24 991.9 - 0.0 - - - - - - -
03/02:21am 16.8 NNW 15 33 992.2 - 0.0 - - - - - - -
03/02:00am 16.5 NNW 12 31 992.6 - 0.0 - - - - - - -
03/01:30am 15.9 N 13 27 993.6 - 0.0 - - - - - - -
03/01:00am 15.6 N 10 18 993.9 - 0.0 - - - - - - -
03/12:30am 15.8 N 14 24 994.8 - 0.0 - - - - - - -
03/12:00am 15.6 N 11 21 994.9 - 0.0 - - - - - - -
 
Date/Time
EST
Temp

°C
Wind Pressure Rain
since 9am
mm
Weather Cloud Vis
km
Sea
Height
m
Swell
Dir
 
Speed
knots
Gust
knots
hPa Trend Height
m
Period
s
Dir
02/11:30pm 15.9 N 13 22 995.1 - 0.0 - - - - - - -
02/11:00pm 15.7 N 13 22 995.4 - 0.0 - - - - - - -
02/10:30pm 15.1 N 9 17 996.3 - 0.0 - - - - - - -
02/10:00pm 15.5 N 11 22 997.2 - 0.0 - - - - - - -
02/09:30pm 14.2 NNE 7 10 997.8 - 0.0 - - - - - - -
02/09:00pm 14.3 NNE 6 11 998.5 - 0.0 - - - - - - -
02/08:30pm 14.4 N 9 17 998.2 - 0.0 - - - - - - -
02/08:00pm 14.4 N 12 18 998.0 - 0.0 - - - - - - -
02/07:30pm 14.3 N 9 16 998.4 - 0.0 - - - - - - -
02/07:00pm 14.0 N 10 17 999.0 - 0.0 - - - - - - -
02/06:30pm 14.2 N 10 18 999.2 - 0.0 - - - - - - -
02/06:00pm 15.3 NNW 12 20 999.3 - 0.0 - - - - - - -
02/05:39pm 15.4 NNW 11 23 999.0 - 0.0 - - - - - - -
02/05:30pm 14.9 NNW 6 10 999.4 - 0.0 - - - - - - -
02/05:00pm 15.4 NNW 8 13 999.5 - 0.0 - - - - - - -
02/04:30pm 16.1 NNW 8 17 999.5 - 0.0 - - - - - - -
02/04:00pm 15.9 NW 9 15 999.8 - 0.0 - - - - - - -
02/03:30pm 15.9 NNW 6 14 1000.2 - 0.0 - - - - - - -
02/03:00pm 16.2 NW 8 15 1000.5 - 0.0 - - - - - - -
02/02:30pm 16.9 WNW 8 14 1000.7 - 0.0 - - - - - - -
02/02:00pm 17.1 WNW 8 17 1000.8 - 0.0 - - - - - - -
02/01:30pm 16.8 WNW 9 17 1001.1 - 0.0 - - - - - - -
02/01:00pm 15.8 WNW 12 24 1001.6 - 0.0 - - - - - - -
02/12:30pm 16.5 NW 12 21 1001.8 - 0.0 - - - - - - -
02/12:00pm 16.9 NW 14 28 1002.3 - 0.0 - - - - - - -
02/11:52am 16.7 WNW 15 28 1002.5 - 0.0 - - - - - - -
02/11:30am 16.7 NW 13 26 1003.1 - 0.0 - - - - - - -
02/11:22am 16.1 NW 15 29 1003.3 - 0.0 - - - - - - -
02/11:00am 16.2 NW 10 20 1003.5 - 0.0 - - - - - - -
02/10:30am 15.5 NW 6 18 1004.1 - 0.0 - - - - - - -
02/10:00am 14.0 WNW 8 20 1004.5 - 0.0 - - - - - - -
02/09:30am 12.3 NW 9 15 1004.5 - 0.0 - - - - - - -
02/09:00am 11.5 NW 7 11 1004.7 - 2.6 - - - - - - -
02/08:30am 11.4 NW 13 23 1004.5 - 2.6 - - - - - - -
02/08:00am 10.8 WNW 11 17 1004.7 - 2.6 - - - - - - -
02/07:30am 10.4 WNW 11 18 1004.3 - 2.6 - - - - - - -
02/07:00am 9.9 WNW 11 17 1004.2 - 2.6 - - - - - - -
02/06:30am 9.7 WNW 8 13 1004.3 - 2.6 - - - - - - -
02/06:00am 9.8 WNW 7 14 1004.2 - 2.6 - - - - - - -
02/05:30am 9.7 WNW 10 15 1004.1 - 2.6 - - - - - - -
02/05:00am 9.5 NW 9 14 1004.0 - 2.6 - - - - - - -
02/04:30am 9.2 WNW 7 13 1003.8 - 2.6 - - - - - - -
02/04:00am 9.1 NW 6 10 1003.7 - 2.6 - - - - - - -
02/03:30am 9.4 NW 8 14 1003.5 - 2.6 - - - - - - -
02/03:00am 9.4 NW 9 13 1003.5 - 2.6 - - - - - - -
02/02:30am 9.5 NW 9 15 1003.5 - 2.6 - - - - - - -
02/02:00am 9.7 NW 11 21 1003.2 - 2.6 - - - - - - -
02/01:30am 9.7 NW 11 18 1003.1 - 2.6 - - - - - - -
02/01:00am 9.9 WNW 10 18 1002.8 - 2.6 - - - - - - -
02/12:30am 10.0 WNW 10 18 1002.4 - 2.6 - - - - - - -
02/12:00am 10.7 WNW 9 15 1002.1 - 2.6 - - - - - - -
 
Date/Time
EST
Temp

°C
Wind Pressure Rain
since 9am
mm
Weather Cloud Vis
km
Sea
Height
m
Swell
Dir
 
Speed
knots
Gust
knots
hPa Trend Height
m
Period
s
Dir
01/11:30pm 11.1 W 8 14 1001.3 - 2.6 - - - - - - -
01/11:00pm 11.6 WSW 13 22 1000.8 - 2.6 - - - - - - -
01/10:34pm 11.9 W 15 27 1000.5 - 2.6 - - - - - - -
01/10:30pm 11.8 W 13 23 1000.4 - 2.6 - - - - - - -
01/10:00pm 12.0 W 14 25 999.7 - 2.6 - - - - - - -
01/09:30pm 12.2 W 15 28 998.9 - 2.6 - - - - - - -
01/09:00pm 12.4 W 17 27 998.0 - 2.6 - - - - - - -
01/08:30pm 12.8 WSW 17 35 996.6 - 2.6 - - - - - - -
01/08:00pm 13.0 W 19 32 995.2 - 2.6 - - - - - - -
01/07:30pm 12.5 W 20 33 993.5 - 2.6 - - - - - - -
01/07:00pm 12.4 W 21 38 993.2 - 2.6 - - - - - - -
01/06:30pm 12.8 W 15 31 992.0 - 2.6 - - - - - - -
01/06:00pm 13.0 W 17 29 991.1 - 2.6 - - - - - - -
01/05:30pm 12.3 WNW 16 29 990.7 - 2.6 - - - - - - -
01/05:04pm 11.9 WNW 15 32 989.8 - 2.6 - - - - - - -
01/05:00pm 12.0 WNW 11 29 989.8 - 2.6 - - - - - - -
01/04:30pm 12.5 WNW 18 34 989.8 - 2.6 - - - - - - -
01/04:00pm 13.8 WNW 20 35 988.4 - 2.6 - - - - - - -
01/03:30pm 15.3 WNW 17 28 988.0 - 2.6 - - - - - - -
01/03:19pm 15.0 WNW 15 27 987.9 - 2.6 - - - - - - -
01/03:00pm 15.4 NNW 7 12 988.1 - 2.6 - - - - - - -
01/02:30pm 18.4 N 5 11 987.9 - 2.6 - - - - - - -

Other Formats:

Comma delimited format used in spreadsheet applications
http://www.bom.gov.au/fwo/IDT60701/IDT60701.94987.axf

JavaScript Object Notation format (JSON) in row-major order
http://www.bom.gov.au/fwo/IDT60701/IDT60701.94987.json